Terminal Aerodrome Forecast
Issued by NWS Jackson, MS

Home | Current Version | Previous Version | Text Only | Print | Product List | Glossary On
Versions: 1 2 3 4 5 6 7 8 9 10 11 12 13
285
FTUS44 KJAN 231143 RRA
TAFGWO
TAF
KGWO 231143Z 2312/2412 11005KT P6SM SKC
     FM231500 13007KT P6SM SKC
     FM240700 17016G22KT P6SM OVC025=

USA.gov is the U.S. government's official web portal to all federal, state and local government web resources and services.